sensor_id;sensor_type;location;lat;lon;timestamp;P1;durP1;ratioP1;P2;durP2;ratioP2
24873;SDS011;12945;42.648;23.370;2022-12-18T00:01:37;6.90;;;4.82;;
24873;SDS011;12945;42.648;23.370;2022-12-18T00:04:03;8.15;;;5.43;;
24873;SDS011;12945;42.648;23.370;2022-12-18T00:06:29;10.35;;;5.90;;
24873;SDS011;12945;42.648;23.370;2022-12-18T00:08:55;9.00;;;5.90;;
24873;SDS011;12945;42.648;23.370;2022-12-18T00:11:21;9.18;;;6.00;;
24873;SDS011;12945;42.648;23.370;2022-12-18T00:13:47;7.25;;;5.43;;
24873;SDS011;12945;42.648;23.370;2022-12-18T00:16:14;9.38;;;6.00;;
24873;SDS011;12945;42.648;23.370;2022-12-18T00:18:39;8.82;;;5.97;;
24873;SDS011;12945;42.648;23.370;2022-12-18T00:21:05;10.63;;;6.28;;
24873;SDS011;12945;42.648;23.370;2022-12-18T00:23:31;11.32;;;6.43;;
24873;SDS011;12945;42.648;23.370;2022-12-18T00:26:00;10.10;;;6.72;;
24873;SDS011;12945;42.648;23.370;2022-12-18T00:28:26;10.00;;;6.93;;
24873;SDS011;12945;42.648;23.370;2022-12-18T00:30:59;11.35;;;7.18;;
24873;SDS011;12945;42.648;23.370;2022-12-18T00:33:24;11.60;;;6.97;;
24873;SDS011;12945;42.648;23.370;2022-12-18T00:35:50;10.80;;;7.00;;
24873;SDS011;12945;42.648;23.370;2022-12-18T00:38:15;12.07;;;7.60;;
24873;SDS011;12945;42.648;23.370;2022-12-18T00:40:40;11.02;;;7.07;;
24873;SDS011;12945;42.648;23.370;2022-12-18T00:43:05;11.35;;;7.10;;
24873;SDS011;12945;42.648;23.370;2022-12-18T00:45:31;11.27;;;6.95;;
24873;SDS011;12945;42.648;23.370;2022-12-18T00:47:56;12.43;;;7.50;;
24873;SDS011;12945;42.648;23.370;2022-12-18T00:50:22;12.15;;;8.23;;
24873;SDS011;12945;42.648;23.370;2022-12-18T00:52:48;11.75;;;7.95;;
24873;SDS011;12945;42.648;23.370;2022-12-18T00:55:13;12.10;;;8.13;;
24873;SDS011;12945;42.648;23.370;2022-12-18T00:57:39;12.38;;;8.63;;
24873;SDS011;12945;42.648;23.370;2022-12-18T01:00:05;15.02;;;8.75;;
24873;SDS011;12945;42.648;23.370;2022-12-18T01:02:30;15.80;;;9.23;;
24873;SDS011;12945;42.648;23.370;2022-12-18T01:04:56;15.13;;;9.35;;
24873;SDS011;12945;42.648;23.370;2022-12-18T01:07:21;15.68;;;9.32;;
24873;SDS011;12945;42.648;23.370;2022-12-18T01:09:46;14.00;;;9.05;;
24873;SDS011;12945;42.648;23.370;2022-12-18T01:12:12;14.68;;;9.55;;
24873;SDS011;12945;42.648;23.370;2022-12-18T01:14:37;17.15;;;10.38;;
24873;SDS011;12945;42.648;23.370;2022-12-18T01:17:03;13.98;;;8.60;;
24873;SDS011;12945;42.648;23.370;2022-12-18T01:19:28;15.70;;;10.30;;
24873;SDS011;12945;42.648;23.370;2022-12-18T01:21:53;15.95;;;9.07;;
24873;SDS011;12945;42.648;23.370;2022-12-18T01:24:19;15.55;;;10.07;;
24873;SDS011;12945;42.648;23.370;2022-12-18T01:26:44;18.85;;;9.35;;
24873;SDS011;12945;42.648;23.370;2022-12-18T01:29:10;14.38;;;8.70;;
24873;SDS011;12945;42.648;23.370;2022-12-18T01:31:35;15.65;;;8.65;;
24873;SDS011;12945;42.648;23.370;2022-12-18T01:34:00;11.93;;;8.27;;
24873;SDS011;12945;42.648;23.370;2022-12-18T01:36:27;13.52;;;8.88;;
24873;SDS011;12945;42.648;23.370;2022-12-18T01:38:53;15.02;;;9.00;;
24873;SDS011;12945;42.648;23.370;2022-12-18T01:41:22;15.00;;;9.02;;
24873;SDS011;12945;42.648;23.370;2022-12-18T01:43:55;15.75;;;9.02;;
24873;SDS011;12945;42.648;23.370;2022-12-18T01:46:22;14.20;;;8.85;;
24873;SDS011;12945;42.648;23.370;2022-12-18T01:48:51;15.57;;;8.90;;
24873;SDS011;12945;42.648;23.370;2022-12-18T01:51:18;15.30;;;8.90;;
24873;SDS011;12945;42.648;23.370;2022-12-18T01:53:43;14.18;;;8.93;;
24873;SDS011;12945;42.648;23.370;2022-12-18T01:56:11;15.00;;;8.82;;
24873;SDS011;12945;42.648;23.370;2022-12-18T02:01:08;16.15;;;9.60;;
24873;SDS011;12945;42.648;23.370;2022-12-18T02:03:34;15.02;;;9.05;;
24873;SDS011;12945;42.648;23.370;2022-12-18T02:06:01;16.88;;;10.02;;
24873;SDS011;12945;42.648;23.370;2022-12-18T02:18:50;16.13;;;9.70;;
24873;SDS011;12945;42.648;23.370;2022-12-18T02:28:55;16.20;;;10.27;;
24873;SDS011;12945;42.648;23.370;2022-12-18T02:31:23;15.95;;;9.55;;
24873;SDS011;12945;42.648;23.370;2022-12-18T02:33:49;16.00;;;9.80;;
24873;SDS011;12945;42.648;23.370;2022-12-18T02:36:15;13.20;;;8.82;;
24873;SDS011;12945;42.648;23.370;2022-12-18T02:38:42;18.02;;;9.30;;
24873;SDS011;12945;42.648;23.370;2022-12-18T02:41:07;15.93;;;10.02;;
24873;SDS011;12945;42.648;23.370;2022-12-18T02:43:33;15.57;;;10.00;;
24873;SDS011;12945;42.648;23.370;2022-12-18T02:45:59;14.27;;;9.02;;
24873;SDS011;12945;42.648;23.370;2022-12-18T02:48:26;16.10;;;9.57;;
24873;SDS011;12945;42.648;23.370;2022-12-18T02:51:17;14.27;;;8.85;;
24873;SDS011;12945;42.648;23.370;2022-12-18T02:53:46;13.65;;;9.40;;
24873;SDS011;12945;42.648;23.370;2022-12-18T03:02:04;14.93;;;9.57;;
24873;SDS011;12945;42.648;23.370;2022-12-18T03:04:30;13.45;;;8.82;;
24873;SDS011;12945;42.648;23.370;2022-12-18T03:06:59;12.73;;;8.65;;
24873;SDS011;12945;42.648;23.370;2022-12-18T03:09:34;14.07;;;8.90;;
24873;SDS011;12945;42.648;23.370;2022-12-18T03:12:18;13.48;;;8.50;;
24873;SDS011;12945;42.648;23.370;2022-12-18T03:14:50;15.90;;;10.00;;
24873;SDS011;12945;42.648;23.370;2022-12-18T03:17:17;19.55;;;10.65;;
24873;SDS011;12945;42.648;23.370;2022-12-18T03:19:44;13.75;;;9.40;;
24873;SDS011;12945;42.648;23.370;2022-12-18T03:22:10;15.65;;;9.88;;
24873;SDS011;12945;42.648;23.370;2022-12-18T03:24:36;16.52;;;9.23;;
24873;SDS011;12945;42.648;23.370;2022-12-18T03:27:05;15.18;;;10.02;;
24873;SDS011;12945;42.648;23.370;2022-12-18T03:32:33;13.57;;;9.10;;
24873;SDS011;12945;42.648;23.370;2022-12-18T03:35:01;16.40;;;9.13;;
24873;SDS011;12945;42.648;23.370;2022-12-18T03:37:28;14.68;;;8.65;;
24873;SDS011;12945;42.648;23.370;2022-12-18T03:39:53;13.77;;;8.52;;
24873;SDS011;12945;42.648;23.370;2022-12-18T03:52:31;15.98;;;9.23;;
24873;SDS011;12945;42.648;23.370;2022-12-18T03:54:59;15.50;;;8.73;;
24873;SDS011;12945;42.648;23.370;2022-12-18T03:57:25;16.02;;;7.82;;
24873;SDS011;12945;42.648;23.370;2022-12-18T03:59:54;18.08;;;8.85;;
24873;SDS011;12945;42.648;23.370;2022-12-18T04:02:20;17.60;;;10.15;;
24873;SDS011;12945;42.648;23.370;2022-12-18T04:04:47;15.13;;;8.93;;
24873;SDS011;12945;42.648;23.370;2022-12-18T04:07:13;14.77;;;8.52;;
24873;SDS011;12945;42.648;23.370;2022-12-18T04:09:38;15.35;;;9.27;;
24873;SDS011;12945;42.648;23.370;2022-12-18T04:12:04;17.95;;;9.48;;
24873;SDS011;12945;42.648;23.370;2022-12-18T04:14:29;16.38;;;9.63;;
24873;SDS011;12945;42.648;23.370;2022-12-18T04:16:54;17.00;;;10.13;;
24873;SDS011;12945;42.648;23.370;2022-12-18T04:19:20;17.05;;;8.82;;
24873;SDS011;12945;42.648;23.370;2022-12-18T04:21:45;14.73;;;9.88;;
24873;SDS011;12945;42.648;23.370;2022-12-18T04:24:10;14.80;;;8.60;;
24873;SDS011;12945;42.648;23.370;2022-12-18T04:26:36;12.25;;;8.10;;
24873;SDS011;12945;42.648;23.370;2022-12-18T04:29:01;16.25;;;9.70;;
24873;SDS011;12945;42.648;23.370;2022-12-18T04:31:26;15.15;;;8.80;;
24873;SDS011;12945;42.648;23.370;2022-12-18T04:33:51;14.20;;;8.65;;
24873;SDS011;12945;42.648;23.370;2022-12-18T04:36:17;17.05;;;9.18;;
24873;SDS011;12945;42.648;23.370;2022-12-18T04:38:42;16.02;;;9.05;;
24873;SDS011;12945;42.648;23.370;2022-12-18T04:41:08;14.27;;;9.27;;
24873;SDS011;12945;42.648;23.370;2022-12-18T04:43:33;17.73;;;9.95;;
24873;SDS011;12945;42.648;23.370;2022-12-18T04:46:02;18.90;;;9.93;;
24873;SDS011;12945;42.648;23.370;2022-12-18T04:48:28;17.33;;;9.65;;
24873;SDS011;12945;42.648;23.370;2022-12-18T04:50:53;18.40;;;10.55;;
24873;SDS011;12945;42.648;23.370;2022-12-18T04:53:18;18.58;;;10.48;;
24873;SDS011;12945;42.648;23.370;2022-12-18T04:55:44;16.63;;;10.57;;
24873;SDS011;12945;42.648;23.370;2022-12-18T04:58:09;17.38;;;10.35;;
24873;SDS011;12945;42.648;23.370;2022-12-18T05:00:34;19.70;;;10.88;;
24873;SDS011;12945;42.648;23.370;2022-12-18T05:03:00;16.92;;;10.50;;
24873;SDS011;12945;42.648;23.370;2022-12-18T05:05:26;21.55;;;11.32;;
24873;SDS011;12945;42.648;23.370;2022-12-18T05:07:51;20.63;;;11.13;;
24873;SDS011;12945;42.648;23.370;2022-12-18T05:10:19;21.98;;;11.45;;
24873;SDS011;12945;42.648;23.370;2022-12-18T05:12:44;23.50;;;12.52;;
24873;SDS011;12945;42.648;23.370;2022-12-18T05:15:31;19.98;;;11.10;;
24873;SDS011;12945;42.648;23.370;2022-12-18T05:17:57;19.67;;;11.10;;
24873;SDS011;12945;42.648;23.370;2022-12-18T05:20:22;19.90;;;11.20;;
24873;SDS011;12945;42.648;23.370;2022-12-18T05:22:47;20.40;;;11.57;;
24873;SDS011;12945;42.648;23.370;2022-12-18T05:25:13;20.45;;;11.20;;
24873;SDS011;12945;42.648;23.370;2022-12-18T05:27:38;22.77;;;11.85;;
24873;SDS011;12945;42.648;23.370;2022-12-18T05:30:03;20.33;;;11.50;;
24873;SDS011;12945;42.648;23.370;2022-12-18T05:32:29;21.35;;;12.10;;
24873;SDS011;12945;42.648;23.370;2022-12-18T05:34:54;20.02;;;12.18;;
24873;SDS011;12945;42.648;23.370;2022-12-18T05:37:19;19.02;;;10.90;;
24873;SDS011;12945;42.648;23.370;2022-12-18T05:39:47;18.65;;;10.98;;
24873;SDS011;12945;42.648;23.370;2022-12-18T05:42:12;22.65;;;11.73;;
24873;SDS011;12945;42.648;23.370;2022-12-18T05:44:38;22.70;;;11.65;;
24873;SDS011;12945;42.648;23.370;2022-12-18T05:47:03;24.00;;;11.23;;
24873;SDS011;12945;42.648;23.370;2022-12-18T05:49:29;20.85;;;11.05;;
24873;SDS011;12945;42.648;23.370;2022-12-18T05:51:54;21.42;;;11.90;;
24873;SDS011;12945;42.648;23.370;2022-12-18T05:54:19;20.08;;;11.32;;
24873;SDS011;12945;42.648;23.370;2022-12-18T05:56:45;31.55;;;12.10;;
24873;SDS011;12945;42.648;23.370;2022-12-18T05:59:10;23.40;;;12.90;;
24873;SDS011;12945;42.648;23.370;2022-12-18T06:01:35;24.83;;;12.60;;
24873;SDS011;12945;42.648;23.370;2022-12-18T06:04:00;22.65;;;12.32;;
24873;SDS011;12945;42.648;23.370;2022-12-18T06:06:26;24.98;;;13.60;;
24873;SDS011;12945;42.648;23.370;2022-12-18T06:08:52;24.42;;;12.77;;
24873;SDS011;12945;42.648;23.370;2022-12-18T06:11:18;22.60;;;12.27;;
24873;SDS011;12945;42.648;23.370;2022-12-18T06:13:44;24.17;;;13.50;;
24873;SDS011;12945;42.648;23.370;2022-12-18T06:16:09;24.88;;;13.15;;
24873;SDS011;12945;42.648;23.370;2022-12-18T06:18:35;25.23;;;13.73;;
24873;SDS011;12945;42.648;23.370;2022-12-18T06:21:00;22.33;;;12.85;;
24873;SDS011;12945;42.648;23.370;2022-12-18T06:23:25;25.55;;;12.68;;
24873;SDS011;12945;42.648;23.370;2022-12-18T06:25:51;22.77;;;12.93;;
24873;SDS011;12945;42.648;23.370;2022-12-18T06:28:16;24.15;;;13.13;;
24873;SDS011;12945;42.648;23.370;2022-12-18T06:30:45;26.38;;;13.95;;
24873;SDS011;12945;42.648;23.370;2022-12-18T06:33:11;25.83;;;12.95;;
24873;SDS011;12945;42.648;23.370;2022-12-18T06:35:37;25.92;;;13.82;;
24873;SDS011;12945;42.648;23.370;2022-12-18T06:38:03;24.98;;;14.00;;
24873;SDS011;12945;42.648;23.370;2022-12-18T06:40:28;22.95;;;13.35;;
24873;SDS011;12945;42.648;23.370;2022-12-18T06:42:53;26.77;;;13.38;;
24873;SDS011;12945;42.648;23.370;2022-12-18T06:45:19;22.50;;;13.60;;
24873;SDS011;12945;42.648;23.370;2022-12-18T06:47:44;25.58;;;14.15;;
24873;SDS011;12945;42.648;23.370;2022-12-18T06:50:09;29.67;;;15.25;;
24873;SDS011;12945;42.648;23.370;2022-12-18T06:52:34;27.80;;;14.38;;
24873;SDS011;12945;42.648;23.370;2022-12-18T06:55:00;27.77;;;14.23;;
24873;SDS011;12945;42.648;23.370;2022-12-18T06:57:25;26.95;;;14.35;;
24873;SDS011;12945;42.648;23.370;2022-12-18T06:59:51;28.83;;;15.23;;
24873;SDS011;12945;42.648;23.370;2022-12-18T07:02:16;25.70;;;13.55;;
24873;SDS011;12945;42.648;23.370;2022-12-18T07:04:42;27.35;;;14.60;;
24873;SDS011;12945;42.648;23.370;2022-12-18T07:07:07;28.40;;;15.05;;
24873;SDS011;12945;42.648;23.370;2022-12-18T07:09:36;25.00;;;14.35;;
24873;SDS011;12945;42.648;23.370;2022-12-18T07:12:01;26.52;;;14.15;;
24873;SDS011;12945;42.648;23.370;2022-12-18T07:14:26;26.90;;;14.63;;
24873;SDS011;12945;42.648;23.370;2022-12-18T07:16:52;25.38;;;13.90;;
24873;SDS011;12945;42.648;23.370;2022-12-18T07:19:17;26.33;;;15.00;;
24873;SDS011;12945;42.648;23.370;2022-12-18T07:21:42;31.10;;;15.75;;
24873;SDS011;12945;42.648;23.370;2022-12-18T07:24:07;25.58;;;14.20;;
24873;SDS011;12945;42.648;23.370;2022-12-18T07:26:33;25.85;;;14.00;;
24873;SDS011;12945;42.648;23.370;2022-12-18T07:28:58;29.55;;;14.77;;
24873;SDS011;12945;42.648;23.370;2022-12-18T07:31:24;26.80;;;15.18;;
24873;SDS011;12945;42.648;23.370;2022-12-18T07:33:50;32.15;;;15.52;;
24873;SDS011;12945;42.648;23.370;2022-12-18T07:36:15;25.70;;;14.50;;
24873;SDS011;12945;42.648;23.370;2022-12-18T07:38:41;29.42;;;14.95;;
24873;SDS011;12945;42.648;23.370;2022-12-18T07:43:32;30.10;;;15.68;;
24873;SDS011;12945;42.648;23.370;2022-12-18T07:45:57;26.98;;;15.07;;
24873;SDS011;12945;42.648;23.370;2022-12-18T07:48:22;30.13;;;15.20;;
24873;SDS011;12945;42.648;23.370;2022-12-18T07:50:48;25.80;;;14.23;;
24873;SDS011;12945;42.648;23.370;2022-12-18T07:53:13;32.53;;;15.25;;
24873;SDS011;12945;42.648;23.370;2022-12-18T07:55:39;30.38;;;14.52;;
24873;SDS011;12945;42.648;23.370;2022-12-18T07:58:06;29.08;;;15.50;;
24873;SDS011;12945;42.648;23.370;2022-12-18T08:00:31;28.23;;;15.38;;
24873;SDS011;12945;42.648;23.370;2022-12-18T08:02:57;30.10;;;16.05;;
24873;SDS011;12945;42.648;23.370;2022-12-18T08:05:22;29.67;;;16.02;;
24873;SDS011;12945;42.648;23.370;2022-12-18T08:07:47;30.95;;;17.10;;
24873;SDS011;12945;42.648;23.370;2022-12-18T08:10:12;30.55;;;15.45;;
24873;SDS011;12945;42.648;23.370;2022-12-18T08:12:38;26.70;;;15.25;;
24873;SDS011;12945;42.648;23.370;2022-12-18T08:15:03;30.30;;;17.33;;
24873;SDS011;12945;42.648;23.370;2022-12-18T08:17:28;29.33;;;16.90;;
24873;SDS011;12945;42.648;23.370;2022-12-18T08:19:54;35.20;;;16.85;;
24873;SDS011;12945;42.648;23.370;2022-12-18T08:22:19;31.63;;;16.77;;
24873;SDS011;12945;42.648;23.370;2022-12-18T08:24:44;36.78;;;18.95;;
24873;SDS011;12945;42.648;23.370;2022-12-18T08:27:10;35.08;;;17.30;;
24873;SDS011;12945;42.648;23.370;2022-12-18T08:29:35;31.58;;;17.38;;
24873;SDS011;12945;42.648;23.370;2022-12-18T08:32:00;33.33;;;18.48;;
24873;SDS011;12945;42.648;23.370;2022-12-18T08:34:25;43.15;;;18.85;;
24873;SDS011;12945;42.648;23.370;2022-12-18T08:36:51;34.22;;;17.30;;
24873;SDS011;12945;42.648;23.370;2022-12-18T08:39:16;31.95;;;18.17;;
24873;SDS011;12945;42.648;23.370;2022-12-18T08:41:41;32.05;;;18.17;;
24873;SDS011;12945;42.648;23.370;2022-12-18T08:44:07;34.25;;;18.38;;
24873;SDS011;12945;42.648;23.370;2022-12-18T08:46:50;31.70;;;17.33;;
24873;SDS011;12945;42.648;23.370;2022-12-18T08:49:16;33.00;;;17.85;;
24873;SDS011;12945;42.648;23.370;2022-12-18T08:51:41;33.25;;;18.10;;
24873;SDS011;12945;42.648;23.370;2022-12-18T08:54:07;30.67;;;16.58;;
24873;SDS011;12945;42.648;23.370;2022-12-18T08:56:35;31.00;;;17.55;;
24873;SDS011;12945;42.648;23.370;2022-12-18T08:59:01;31.80;;;16.60;;
24873;SDS011;12945;42.648;23.370;2022-12-18T09:01:27;30.85;;;17.00;;
24873;SDS011;12945;42.648;23.370;2022-12-18T09:03:52;35.38;;;18.15;;
24873;SDS011;12945;42.648;23.370;2022-12-18T09:06:18;34.50;;;17.60;;
24873;SDS011;12945;42.648;23.370;2022-12-18T09:08:44;33.63;;;17.75;;
24873;SDS011;12945;42.648;23.370;2022-12-18T09:11:13;33.25;;;16.80;;
24873;SDS011;12945;42.648;23.370;2022-12-18T09:13:39;33.77;;;18.27;;
24873;SDS011;12945;42.648;23.370;2022-12-18T09:16:04;33.50;;;18.05;;
24873;SDS011;12945;42.648;23.370;2022-12-18T09:18:29;37.58;;;18.05;;
24873;SDS011;12945;42.648;23.370;2022-12-18T09:20:55;34.10;;;18.33;;
24873;SDS011;12945;42.648;23.370;2022-12-18T09:23:20;30.67;;;17.52;;
24873;SDS011;12945;42.648;23.370;2022-12-18T09:25:46;36.65;;;18.52;;
24873;SDS011;12945;42.648;23.370;2022-12-18T09:28:12;37.75;;;19.80;;
24873;SDS011;12945;42.648;23.370;2022-12-18T09:30:38;37.10;;;18.77;;
24873;SDS011;12945;42.648;23.370;2022-12-18T09:33:04;32.38;;;17.30;;
24873;SDS011;12945;42.648;23.370;2022-12-18T09:35:29;33.22;;;17.67;;
24873;SDS011;12945;42.648;23.370;2022-12-18T09:37:54;29.58;;;16.73;;
24873;SDS011;12945;42.648;23.370;2022-12-18T09:40:21;31.88;;;16.90;;
24873;SDS011;12945;42.648;23.370;2022-12-18T09:42:48;26.98;;;15.20;;
24873;SDS011;12945;42.648;23.370;2022-12-18T09:45:15;28.00;;;15.88;;
24873;SDS011;12945;42.648;23.370;2022-12-18T09:47:41;30.63;;;16.25;;
24873;SDS011;12945;42.648;23.370;2022-12-18T09:50:27;28.33;;;15.48;;
24873;SDS011;12945;42.648;23.370;2022-12-18T09:52:56;29.15;;;15.55;;
24873;SDS011;12945;42.648;23.370;2022-12-18T09:55:30;27.00;;;15.13;;
24873;SDS011;12945;42.648;23.370;2022-12-18T10:00:34;28.58;;;16.27;;
24873;SDS011;12945;42.648;23.370;2022-12-18T10:03:00;35.30;;;17.30;;
24873;SDS011;12945;42.648;23.370;2022-12-18T10:08:18;34.47;;;17.73;;
24873;SDS011;12945;42.648;23.370;2022-12-18T10:10:47;34.20;;;15.68;;
24873;SDS011;12945;42.648;23.370;2022-12-18T10:13:16;29.40;;;15.63;;
24873;SDS011;12945;42.648;23.370;2022-12-18T10:20:49;32.65;;;16.73;;
24873;SDS011;12945;42.648;23.370;2022-12-18T10:23:26;35.50;;;17.63;;
24873;SDS011;12945;42.648;23.370;2022-12-18T10:26:03;31.95;;;17.80;;
24873;SDS011;12945;42.648;23.370;2022-12-18T10:28:30;34.50;;;17.27;;
24873;SDS011;12945;42.648;23.370;2022-12-18T10:30:56;34.45;;;17.92;;
24873;SDS011;12945;42.648;23.370;2022-12-18T10:33:22;30.42;;;15.65;;
24873;SDS011;12945;42.648;23.370;2022-12-18T10:35:49;31.05;;;16.05;;
24873;SDS011;12945;42.648;23.370;2022-12-18T10:40:47;35.03;;;16.20;;
24873;SDS011;12945;42.648;23.370;2022-12-18T10:43:14;30.33;;;16.35;;
24873;SDS011;12945;42.648;23.370;2022-12-18T10:45:40;33.30;;;17.23;;
24873;SDS011;12945;42.648;23.370;2022-12-18T10:48:17;32.15;;;16.77;;
24873;SDS011;12945;42.648;23.370;2022-12-18T10:50:43;29.42;;;15.50;;
24873;SDS011;12945;42.648;23.370;2022-12-18T10:53:13;36.83;;;19.02;;
24873;SDS011;12945;42.648;23.370;2022-12-18T10:55:44;31.02;;;15.50;;
24873;SDS011;12945;42.648;23.370;2022-12-18T11:00:39;31.20;;;16.10;;
24873;SDS011;12945;42.648;23.370;2022-12-18T11:03:07;35.28;;;17.95;;
24873;SDS011;12945;42.648;23.370;2022-12-18T11:05:49;39.38;;;17.70;;
24873;SDS011;12945;42.648;23.370;2022-12-18T11:08:25;34.97;;;17.42;;
24873;SDS011;12945;42.648;23.370;2022-12-18T11:10:51;32.10;;;16.33;;
24873;SDS011;12945;42.648;23.370;2022-12-18T11:13:17;32.35;;;17.02;;
24873;SDS011;12945;42.648;23.370;2022-12-18T11:15:43;34.10;;;17.50;;
24873;SDS011;12945;42.648;23.370;2022-12-18T11:20:54;29.25;;;15.02;;
24873;SDS011;12945;42.648;23.370;2022-12-18T11:23:20;30.77;;;15.48;;
24873;SDS011;12945;42.648;23.370;2022-12-18T11:25:54;29.13;;;15.15;;
24873;SDS011;12945;42.648;23.370;2022-12-18T11:28:27;30.60;;;15.07;;
24873;SDS011;12945;42.648;23.370;2022-12-18T11:31:11;27.05;;;14.35;;
24873;SDS011;12945;42.648;23.370;2022-12-18T11:33:37;28.52;;;15.70;;
24873;SDS011;12945;42.648;23.370;2022-12-18T11:36:05;31.20;;;16.02;;
24873;SDS011;12945;42.648;23.370;2022-12-18T11:38:34;34.63;;;15.68;;
24873;SDS011;12945;42.648;23.370;2022-12-18T11:43:45;34.38;;;16.42;;
24873;SDS011;12945;42.648;23.370;2022-12-18T11:46:47;28.10;;;15.32;;
24873;SDS011;12945;42.648;23.370;2022-12-18T11:49:12;31.67;;;15.90;;
24873;SDS011;12945;42.648;23.370;2022-12-18T11:51:53;31.55;;;15.30;;
24873;SDS011;12945;42.648;23.370;2022-12-18T11:54:20;31.05;;;16.55;;
24873;SDS011;12945;42.648;23.370;2022-12-18T11:56:47;29.27;;;15.05;;
24873;SDS011;12945;42.648;23.370;2022-12-18T12:14:30;29.48;;;15.55;;
24873;SDS011;12945;42.648;23.370;2022-12-18T12:25:16;29.13;;;15.57;;
24873;SDS011;12945;42.648;23.370;2022-12-18T12:27:53;34.55;;;16.25;;
24873;SDS011;12945;42.648;23.370;2022-12-18T12:30:25;33.00;;;17.05;;
24873;SDS011;12945;42.648;23.370;2022-12-18T12:35:28;35.25;;;16.90;;
24873;SDS011;12945;42.648;23.370;2022-12-18T12:40:24;35.35;;;17.05;;
24873;SDS011;12945;42.648;23.370;2022-12-18T12:42:53;30.70;;;16.58;;
24873;SDS011;12945;42.648;23.370;2022-12-18T12:45:54;32.70;;;16.83;;
24873;SDS011;12945;42.648;23.370;2022-12-18T12:48:25;34.50;;;16.92;;
24873;SDS011;12945;42.648;23.370;2022-12-18T12:50:52;30.90;;;16.25;;
24873;SDS011;12945;42.648;23.370;2022-12-18T12:53:40;31.17;;;17.40;;
24873;SDS011;12945;42.648;23.370;2022-12-18T12:56:06;35.08;;;17.65;;
24873;SDS011;12945;42.648;23.370;2022-12-18T12:58:55;32.17;;;17.10;;
24873;SDS011;12945;42.648;23.370;2022-12-18T13:06:33;32.08;;;17.60;;
24873;SDS011;12945;42.648;23.370;2022-12-18T13:09:01;32.40;;;17.85;;
24873;SDS011;12945;42.648;23.370;2022-12-18T13:14:21;34.10;;;17.10;;
24873;SDS011;12945;42.648;23.370;2022-12-18T13:16:46;37.60;;;17.60;;
24873;SDS011;12945;42.648;23.370;2022-12-18T13:19:20;39.80;;;18.92;;
24873;SDS011;12945;42.648;23.370;2022-12-18T13:21:51;35.55;;;18.40;;
24873;SDS011;12945;42.648;23.370;2022-12-18T13:24:27;41.53;;;18.20;;
24873;SDS011;12945;42.648;23.370;2022-12-18T13:26:52;31.52;;;16.50;;
24873;SDS011;12945;42.648;23.370;2022-12-18T13:32:10;32.22;;;17.55;;
24873;SDS011;12945;42.648;23.370;2022-12-18T13:34:43;37.40;;;18.88;;
24873;SDS011;12945;42.648;23.370;2022-12-18T13:39:52;39.35;;;19.88;;
24873;SDS011;12945;42.648;23.370;2022-12-18T13:47:50;34.85;;;18.35;;
24873;SDS011;12945;42.648;23.370;2022-12-18T13:50:33;36.05;;;17.63;;
24873;SDS011;12945;42.648;23.370;2022-12-18T13:52:58;32.28;;;17.20;;
24873;SDS011;12945;42.648;23.370;2022-12-18T13:55:23;34.90;;;17.73;;
24873;SDS011;12945;42.648;23.370;2022-12-18T13:57:49;33.33;;;16.77;;
24873;SDS011;12945;42.648;23.370;2022-12-18T14:00:27;32.83;;;17.45;;
24873;SDS011;12945;42.648;23.370;2022-12-18T14:02:56;36.60;;;18.48;;
24873;SDS011;12945;42.648;23.370;2022-12-18T14:07:47;40.13;;;18.90;;
24873;SDS011;12945;42.648;23.370;2022-12-18T14:10:12;32.42;;;17.85;;
24873;SDS011;12945;42.648;23.370;2022-12-18T14:12:39;36.05;;;17.63;;
24873;SDS011;12945;42.648;23.370;2022-12-18T14:15:31;39.22;;;18.40;;
24873;SDS011;12945;42.648;23.370;2022-12-18T14:20:27;31.75;;;17.15;;
24873;SDS011;12945;42.648;23.370;2022-12-18T14:22:53;35.55;;;17.63;;
24873;SDS011;12945;42.648;23.370;2022-12-18T14:25:23;34.75;;;16.83;;
24873;SDS011;12945;42.648;23.370;2022-12-18T14:35:26;27.70;;;14.93;;
24873;SDS011;12945;42.648;23.370;2022-12-18T14:37:52;25.83;;;14.02;;
24873;SDS011;12945;42.648;23.370;2022-12-18T14:40:17;27.42;;;14.73;;
24873;SDS011;12945;42.648;23.370;2022-12-18T14:42:42;29.25;;;14.15;;
24873;SDS011;12945;42.648;23.370;2022-12-18T14:45:37;27.30;;;14.38;;
24873;SDS011;12945;42.648;23.370;2022-12-18T14:48:06;28.73;;;14.10;;
24873;SDS011;12945;42.648;23.370;2022-12-18T14:50:33;26.65;;;14.38;;
24873;SDS011;12945;42.648;23.370;2022-12-18T14:52:58;24.98;;;13.40;;
24873;SDS011;12945;42.648;23.370;2022-12-18T14:55:23;28.80;;;14.70;;
24873;SDS011;12945;42.648;23.370;2022-12-18T14:57:52;30.20;;;14.77;;
24873;SDS011;12945;42.648;23.370;2022-12-18T15:00:19;27.92;;;14.52;;
24873;SDS011;12945;42.648;23.370;2022-12-18T15:03:02;32.65;;;14.80;;
24873;SDS011;12945;42.648;23.370;2022-12-18T15:05:32;29.20;;;14.55;;
24873;SDS011;12945;42.648;23.370;2022-12-18T15:07:59;28.02;;;15.13;;
24873;SDS011;12945;42.648;23.370;2022-12-18T15:10:25;27.40;;;14.75;;
24873;SDS011;12945;42.648;23.370;2022-12-18T15:20:33;30.70;;;15.27;;
24873;SDS011;12945;42.648;23.370;2022-12-18T15:23:04;25.33;;;14.10;;
24873;SDS011;12945;42.648;23.370;2022-12-18T15:27:55;32.97;;;15.25;;
24873;SDS011;12945;42.648;23.370;2022-12-18T15:30:24;28.58;;;14.63;;
24873;SDS011;12945;42.648;23.370;2022-12-18T15:32:49;29.20;;;15.02;;
24873;SDS011;12945;42.648;23.370;2022-12-18T15:37:40;27.77;;;14.20;;
24873;SDS011;12945;42.648;23.370;2022-12-18T15:40:06;29.02;;;14.52;;
24873;SDS011;12945;42.648;23.370;2022-12-18T15:42:32;28.83;;;14.60;;
24873;SDS011;12945;42.648;23.370;2022-12-18T15:45:16;25.83;;;13.55;;
24873;SDS011;12945;42.648;23.370;2022-12-18T15:47:41;27.50;;;14.73;;
24873;SDS011;12945;42.648;23.370;2022-12-18T15:50:07;28.30;;;15.00;;
24873;SDS011;12945;42.648;23.370;2022-12-18T15:52:34;29.73;;;15.23;;
24873;SDS011;12945;42.648;23.370;2022-12-18T15:55:00;30.63;;;15.73;;
24873;SDS011;12945;42.648;23.370;2022-12-18T15:57:44;34.58;;;16.35;;
24873;SDS011;12945;42.648;23.370;2022-12-18T16:00:11;29.67;;;15.05;;
24873;SDS011;12945;42.648;23.370;2022-12-18T16:02:36;30.60;;;15.38;;
24873;SDS011;12945;42.648;23.370;2022-12-18T16:05:02;30.30;;;14.77;;
24873;SDS011;12945;42.648;23.370;2022-12-18T16:07:28;28.58;;;14.82;;
24873;SDS011;12945;42.648;23.370;2022-12-18T16:09:53;32.88;;;15.63;;
24873;SDS011;12945;42.648;23.370;2022-12-18T16:12:20;29.55;;;14.98;;
24873;SDS011;12945;42.648;23.370;2022-12-18T16:14:46;32.17;;;15.95;;
24873;SDS011;12945;42.648;23.370;2022-12-18T16:17:12;29.83;;;15.65;;
24873;SDS011;12945;42.648;23.370;2022-12-18T16:19:37;30.70;;;15.15;;
24873;SDS011;12945;42.648;23.370;2022-12-18T16:22:03;29.40;;;16.10;;
24873;SDS011;12945;42.648;23.370;2022-12-18T16:24:29;31.30;;;15.13;;
24873;SDS011;12945;42.648;23.370;2022-12-18T16:26:55;30.90;;;15.63;;
24873;SDS011;12945;42.648;23.370;2022-12-18T16:29:21;31.60;;;15.80;;
24873;SDS011;12945;42.648;23.370;2022-12-18T16:31:50;29.95;;;14.88;;